Luana, Iowa
Current Conditions -  °F | °C
As of 6:15 PM on Wednesday 26 Nov 2014 (Local Time) from KPDC Reporting Station
Overcast Overcast  
Wind Chill: 25°   Ceiling: 7000
Heat Index: 25°   Visibility: 7mi
Dew Point: 20°   Wind: 0mph
Humidity: 83%   Direction: NA
Pressure: 30.21"   Gusts: NA
Location:  43.06°N, 91.45°W
Report Text: KPDC 270015Z AUTO 00000KT 7SM SCT020 SCT055 OVC070 M04/M06 A3021 RMK AO2 T10401065
Loading
Personal Weather Stations






























Interactive Weather Map New forecast layout! Learn more

10-Day Weather Forecast

Advertisements
Track Severe Weather on mobile